createdAt,value
2018-03-31T00:00:03.581Z,6.33
2018-03-31T00:02:30.528Z,6.20
2018-03-31T00:04:57.490Z,6.97
2018-03-31T00:07:24.438Z,6.43
2018-03-31T00:09:51.373Z,7.10
2018-03-31T00:12:18.347Z,7.87
2018-03-31T00:14:45.294Z,7.07
2018-03-31T00:17:13.411Z,6.27
2018-03-31T00:19:40.336Z,8.40
2018-03-31T00:22:07.311Z,6.10
2018-03-31T00:24:34.278Z,9.67
2018-03-31T00:27:01.989Z,11.07
2018-03-31T00:29:32.049Z,6.83
2018-03-31T00:31:58.998Z,9.07
2018-03-31T00:34:25.939Z,7.30
2018-03-31T00:36:52.883Z,6.40
2018-03-31T00:39:19.829Z,6.30
2018-03-31T00:41:46.803Z,5.97
2018-03-31T00:44:13.748Z,6.57
2018-03-31T00:46:40.692Z,6.13
2018-03-31T00:49:07.673Z,7.20
2018-03-31T00:51:35.390Z,8.20
2018-03-31T00:54:02.358Z,9.17
2018-03-31T00:56:29.306Z,5.53
2018-03-31T00:58:56.255Z,7.33
2018-03-31T01:01:23.233Z,8.50
2018-03-31T01:03:50.206Z,7.20
2018-03-31T01:06:17.155Z,7.53
2018-03-31T01:08:44.113Z,6.03
2018-03-31T01:11:11.069Z,8.33
2018-03-31T01:13:38.043Z,8.53
2018-03-31T01:16:05.005Z,7.70
2018-03-31T01:18:31.963Z,7.93
2018-03-31T01:20:58.949Z,6.37
2018-03-31T01:23:25.900Z,8.53
2018-03-31T01:25:52.857Z,7.37
2018-03-31T01:28:20.129Z,8.70
2018-03-31T01:30:47.082Z,7.10
2018-03-31T01:33:14.051Z,9.63
2018-03-31T01:35:40.989Z,9.27
2018-03-31T01:38:07.951Z,8.93
2018-03-31T01:40:34.893Z,9.30
2018-03-31T01:43:01.880Z,9.30
2018-03-31T01:45:28.859Z,9.00
2018-03-31T01:47:55.808Z,9.40
2018-03-31T01:50:22.766Z,9.90
2018-03-31T01:52:49.821Z,7.20
2018-03-31T01:55:16.773Z,7.00
2018-03-31T01:57:43.748Z,9.50
2018-03-31T02:00:10.699Z,8.70
2018-03-31T02:02:37.657Z,8.50
2018-03-31T02:05:04.601Z,9.07
2018-03-31T02:07:32.319Z,12.93
2018-03-31T02:09:59.273Z,10.37
2018-03-31T02:12:26.237Z,9.03
2018-03-31T02:14:53.196Z,8.53
2018-03-31T02:17:20.180Z,16.23
2018-03-31T02:19:47.110Z,9.07
2018-03-31T02:22:14.106Z,8.03
2018-03-31T02:24:41.062Z,10.03
2018-03-31T02:27:08.022Z,9.80
2018-03-31T02:29:34.973Z,11.13
2018-03-31T02:32:01.954Z,9.20
2018-03-31T02:34:28.909Z,9.90
2018-03-31T02:36:55.869Z,7.60
2018-03-31T02:39:23.612Z,8.60
2018-03-31T02:41:50.565Z,14.17
2018-03-31T02:44:17.526Z,8.40
2018-03-31T02:46:44.486Z,9.57
2018-03-31T02:49:12.211Z,9.70
2018-03-31T02:51:39.189Z,11.80
2018-03-31T02:54:06.145Z,9.23
2018-03-31T02:56:33.120Z,7.83
2018-03-31T02:59:00.085Z,9.83
2018-03-31T03:01:27.062Z,6.80
2018-03-31T03:03:54.032Z,12.37
2018-03-31T03:06:20.973Z,8.90
2018-03-31T03:08:47.925Z,9.43
2018-03-31T03:11:14.895Z,9.77
2018-03-31T03:13:42.156Z,8.97
2018-03-31T03:16:09.434Z,13.87
2018-03-31T03:18:36.384Z,10.50
2018-03-31T03:21:03.333Z,9.97
2018-03-31T03:23:30.295Z,11.97
2018-03-31T03:25:57.254Z,8.87
2018-03-31T03:28:24.216Z,12.30
2018-03-31T03:30:51.174Z,8.70
2018-03-31T03:33:18.113Z,9.00
2018-03-31T03:35:45.083Z,10.87
2018-03-31T03:38:12.030Z,8.33
2018-03-31T03:40:38.986Z,8.23
2018-03-31T03:43:06.727Z,11.37
2018-03-31T03:45:33.708Z,8.53
2018-03-31T03:48:00.688Z,9.70
2018-03-31T03:50:27.630Z,7.97
2018-03-31T03:52:54.603Z,16.00
2018-03-31T03:55:21.544Z,9.00
2018-03-31T03:57:48.485Z,9.07
2018-03-31T04:00:15.450Z,8.43
2018-03-31T04:02:42.404Z,9.87
2018-03-31T04:05:09.369Z,7.77
2018-03-31T04:07:36.329Z,7.00
2018-03-31T04:10:03.300Z,8.70
2018-03-31T04:12:30.254Z,10.60
2018-03-31T04:14:57.962Z,8.57
2018-03-31T04:17:24.918Z,7.17
2018-03-31T04:19:51.874Z,10.90
2018-03-31T04:22:18.834Z,10.43
2018-03-31T04:24:45.806Z,11.83
2018-03-31T04:27:13.517Z,10.93
2018-03-31T04:29:40.476Z,9.33
2018-03-31T04:32:07.430Z,8.13
2018-03-31T04:34:34.381Z,9.40
2018-03-31T04:37:01.344Z,9.77
2018-03-31T04:39:28.312Z,10.23
2018-03-31T04:41:55.286Z,9.53
2018-03-31T04:44:22.997Z,9.50
2018-03-31T04:46:49.944Z,10.20
2018-03-31T04:49:16.921Z,12.00
2018-03-31T04:51:43.876Z,8.53
2018-03-31T04:54:10.841Z,9.67
2018-03-31T04:56:37.784Z,11.10
2018-03-31T04:59:04.728Z,8.77
2018-03-31T05:01:31.709Z,13.10
2018-03-31T05:03:58.664Z,9.20
2018-03-31T05:06:25.638Z,9.07
2018-03-31T05:08:52.593Z,11.53
2018-03-31T05:11:19.556Z,11.50
2018-03-31T05:13:46.539Z,9.10
2018-03-31T05:16:13.486Z,10.97
2018-03-31T05:18:40.450Z,10.83
2018-03-31T05:21:07.404Z,11.97
2018-03-31T05:23:35.124Z,12.03
2018-03-31T05:26:02.101Z,11.30
2018-03-31T05:28:29.054Z,11.03
2018-03-31T05:30:56.777Z,13.70
2018-03-31T05:33:23.733Z,12.80
2018-03-31T05:35:50.694Z,11.60
2018-03-31T05:38:17.660Z,10.37
2018-03-31T05:40:45.792Z,13.10
2018-03-31T05:43:12.766Z,11.10
2018-03-31T05:45:39.725Z,12.93
2018-03-31T05:48:09.208Z,14.37
2018-03-31T05:50:36.154Z,11.07
2018-03-31T05:53:03.378Z,11.83
2018-03-31T05:55:31.093Z,14.93
2018-03-31T05:57:58.045Z,14.50
2018-03-31T06:00:25.008Z,10.90
2018-03-31T06:02:51.973Z,11.60
2018-03-31T06:05:19.697Z,15.10
2018-03-31T06:07:46.656Z,9.60
2018-03-31T06:10:13.609Z,14.40
2018-03-31T06:12:40.556Z,11.80
2018-03-31T06:15:07.532Z,12.50
2018-03-31T06:17:35.266Z,13.30
2018-03-31T06:20:02.254Z,8.67
2018-03-31T06:22:29.192Z,7.00
2018-03-31T06:24:56.137Z,11.77
2018-03-31T06:27:23.101Z,10.80
2018-03-31T06:29:50.061Z,9.23
2018-03-31T06:32:17.021Z,11.80
2018-03-31T06:34:43.973Z,10.70
2018-03-31T06:37:10.958Z,11.73
2018-03-31T06:39:37.938Z,13.80
2018-03-31T06:42:04.908Z,8.23
2018-03-31T06:44:31.875Z,11.47
2018-03-31T06:46:58.825Z,14.70
2018-03-31T06:49:25.794Z,9.23
2018-03-31T06:51:52.764Z,14.43
2018-03-31T06:54:19.718Z,10.60
2018-03-31T06:56:46.693Z,11.50
2018-03-31T06:59:13.646Z,15.73
2018-03-31T07:01:41.362Z,9.37
2018-03-31T07:04:08.317Z,11.50
2018-03-31T07:06:35.274Z,8.40
2018-03-31T07:09:02.253Z,7.97
2018-03-31T07:11:29.202Z,7.50
2018-03-31T07:13:56.394Z,10.47
2018-03-31T07:16:23.361Z,10.03
2018-03-31T07:18:50.312Z,11.33
2018-03-31T07:21:17.284Z,12.20
2018-03-31T07:23:44.234Z,11.40
2018-03-31T07:26:12.389Z,12.10
2018-03-31T07:28:39.353Z,9.97
2018-03-31T07:31:06.686Z,9.20
2018-03-31T07:33:33.634Z,14.67
2018-03-31T07:36:00.584Z,8.60
2018-03-31T07:38:27.531Z,10.00
2018-03-31T07:40:54.496Z,9.97
2018-03-31T07:43:21.451Z,10.90
2018-03-31T07:45:49.154Z,10.83
2018-03-31T07:48:16.085Z,8.80
2018-03-31T07:50:43.042Z,8.10
2018-03-31T07:53:10.000Z,8.93
2018-03-31T07:55:36.945Z,8.20
2018-03-31T07:58:03.901Z,8.90
2018-03-31T08:00:31.618Z,8.60
2018-03-31T08:02:58.577Z,8.03
2018-03-31T08:05:25.529Z,9.40
2018-03-31T08:07:52.481Z,8.20
2018-03-31T08:10:19.755Z,10.20
2018-03-31T08:12:48.217Z,8.43
2018-03-31T08:15:15.170Z,9.10
2018-03-31T08:17:42.137Z,8.00
2018-03-31T08:20:09.408Z,8.27
2018-03-31T08:22:36.370Z,6.30
2018-03-31T08:25:03.323Z,8.37
2018-03-31T08:27:30.269Z,6.87
2018-03-31T08:29:58.010Z,7.80
2018-03-31T08:32:24.952Z,7.83
2018-03-31T08:34:51.928Z,6.60
2018-03-31T08:37:18.880Z,5.80
2018-03-31T08:39:45.841Z,5.80
2018-03-31T08:42:12.800Z,7.00
2018-03-31T08:44:39.750Z,7.17
2018-03-31T08:47:06.713Z,8.80
2018-03-31T08:49:33.664Z,6.73
2018-03-31T08:52:00.941Z,8.67
2018-03-31T08:54:27.960Z,7.10
2018-03-31T08:56:54.867Z,6.40
2018-03-31T08:59:21.835Z,6.80
2018-03-31T09:01:48.805Z,5.70
2018-03-31T09:04:15.758Z,5.13
2018-03-31T09:06:42.715Z,5.40
2018-03-31T09:09:09.690Z,6.30
2018-03-31T09:11:36.743Z,5.47
2018-03-31T09:14:03.700Z,6.10
2018-03-31T09:16:30.649Z,6.43
2018-03-31T09:18:57.613Z,6.57
2018-03-31T09:21:25.397Z,6.57
2018-03-31T09:23:53.120Z,5.57
2018-03-31T09:26:20.065Z,6.27
2018-03-31T09:28:47.021Z,5.53
2018-03-31T09:31:14.183Z,6.50
2018-03-31T09:33:41.151Z,5.77
2018-03-31T09:36:08.113Z,6.40
2018-03-31T09:38:35.069Z,5.87
2018-03-31T09:41:02.014Z,5.63
2018-03-31T09:43:28.977Z,5.90
2018-03-31T09:45:56.276Z,5.93
2018-03-31T09:48:23.241Z,5.17
2018-03-31T09:50:50.193Z,4.80
2018-03-31T09:53:17.236Z,4.20
2018-03-31T09:55:44.203Z,5.63
2018-03-31T09:58:11.158Z,3.67
2018-03-31T10:00:38.110Z,4.27
2018-03-31T10:03:06.060Z,4.13
2018-03-31T10:05:33.002Z,3.87
2018-03-31T10:07:59.984Z,3.20
2018-03-31T10:10:26.939Z,3.20
2018-03-31T10:12:53.926Z,7.00
2018-03-31T10:15:20.870Z,3.47
2018-03-31T10:17:47.814Z,4.13
2018-03-31T10:20:14.781Z,3.57
2018-03-31T10:22:41.728Z,4.60
2018-03-31T10:25:08.720Z,3.20
2018-03-31T10:27:35.662Z,4.87
2018-03-31T10:30:04.122Z,3.90
2018-03-31T10:32:31.096Z,5.30
2018-03-31T10:34:58.038Z,3.80
2018-03-31T10:37:25.011Z,3.63
2018-03-31T10:39:51.968Z,3.33
2018-03-31T10:42:19.689Z,3.47
2018-03-31T10:44:46.640Z,3.10
2018-03-31T10:47:13.793Z,3.10
2018-03-31T10:49:40.754Z,3.07
2018-03-31T10:52:07.714Z,2.87
2018-03-31T10:54:34.666Z,2.97
2018-03-31T10:57:01.630Z,3.13
2018-03-31T10:59:28.577Z,5.13
2018-03-31T11:01:56.728Z,3.10
2018-03-31T11:04:23.684Z,3.57
2018-03-31T11:06:50.894Z,7.13
2018-03-31T11:09:18.021Z,2.70
2018-03-31T11:11:45.764Z,5.30
2018-03-31T11:14:12.731Z,2.47
2018-03-31T11:16:39.671Z,3.60
2018-03-31T11:19:06.791Z,3.23
2018-03-31T11:21:33.780Z,3.47
2018-03-31T11:24:00.738Z,3.03
2018-03-31T11:26:27.690Z,3.53
2018-03-31T11:28:55.413Z,3.60
2018-03-31T11:31:22.483Z,9.23
2018-03-31T11:33:49.442Z,2.90
2018-03-31T11:36:16.397Z,2.70
2018-03-31T11:38:43.340Z,3.80
2018-03-31T11:41:10.298Z,2.73
2018-03-31T11:43:37.252Z,4.10
2018-03-31T11:46:04.216Z,2.40
2018-03-31T11:48:31.165Z,2.83
2018-03-31T11:50:58.119Z,2.97
2018-03-31T11:53:25.081Z,2.50
2018-03-31T11:55:52.035Z,3.63
2018-03-31T11:58:19.316Z,2.70
2018-03-31T12:00:46.262Z,2.10
2018-03-31T12:03:14.246Z,2.50
2018-03-31T12:05:41.218Z,3.10
2018-03-31T12:08:08.165Z,2.20
2018-03-31T12:10:35.120Z,5.33
2018-03-31T12:13:02.084Z,2.60
2018-03-31T12:15:29.802Z,4.67
2018-03-31T12:17:56.848Z,3.73
2018-03-31T12:20:23.790Z,2.60
2018-03-31T12:22:50.749Z,2.70
2018-03-31T12:25:17.693Z,2.40
2018-03-31T12:27:44.641Z,3.00
2018-03-31T12:30:11.615Z,2.50
2018-03-31T12:32:38.568Z,2.80
2018-03-31T12:35:05.559Z,2.50
2018-03-31T12:37:32.501Z,2.80
2018-03-31T12:39:59.462Z,2.77
2018-03-31T12:42:26.653Z,2.50
2018-03-31T12:44:53.606Z,2.60
2018-03-31T12:47:20.653Z,3.90
2018-03-31T12:49:47.715Z,2.80
2018-03-31T12:52:14.666Z,4.50
2018-03-31T12:54:41.632Z,2.40
2018-03-31T12:57:08.856Z,2.20
2018-03-31T12:59:35.817Z,2.30
2018-03-31T13:02:02.791Z,4.93
2018-03-31T13:04:29.743Z,2.40
2018-03-31T13:06:56.725Z,2.20
2018-03-31T13:09:24.214Z,2.33
2018-03-31T13:11:51.479Z,2.20
2018-03-31T13:14:18.426Z,2.60
2018-03-31T13:16:45.381Z,7.20
2018-03-31T13:19:12.424Z,2.40
2018-03-31T13:21:39.381Z,2.30
2018-03-31T13:24:06.735Z,2.40
2018-03-31T13:26:33.693Z,2.40
2018-03-31T13:29:00.642Z,2.30
2018-03-31T13:31:27.620Z,2.57
2018-03-31T13:33:54.563Z,2.83
2018-03-31T13:36:21.505Z,2.90
2018-03-31T13:38:48.511Z,2.60
2018-03-31T13:41:15.471Z,2.30
2018-03-31T13:43:42.641Z,2.23
2018-03-31T13:46:09.574Z,2.40
2018-03-31T13:48:36.514Z,2.40
2018-03-31T13:51:03.484Z,2.60
2018-03-31T13:53:30.433Z,2.60
2018-03-31T13:55:57.405Z,2.70
2018-03-31T13:58:24.355Z,2.40
2018-03-31T14:00:53.876Z,2.40
2018-03-31T14:03:21.913Z,2.60
2018-03-31T14:05:48.861Z,2.50
2018-03-31T14:08:15.852Z,2.30
2018-03-31T14:10:42.795Z,2.60
2018-03-31T14:13:09.750Z,2.83
2018-03-31T14:15:36.760Z,2.83
2018-03-31T14:18:07.134Z,3.83
2018-03-31T14:20:34.081Z,2.43
2018-03-31T14:23:02.159Z,2.63
2018-03-31T14:25:29.073Z,3.03
2018-03-31T14:27:56.032Z,2.70
2018-03-31T14:30:22.981Z,2.23
2018-03-31T14:32:49.934Z,4.50
2018-03-31T14:35:16.880Z,2.20
2018-03-31T14:37:43.829Z,2.80
2018-03-31T14:40:10.810Z,2.30
2018-03-31T14:42:38.522Z,2.20
2018-03-31T14:45:05.504Z,2.97
2018-03-31T14:47:32.446Z,2.73
2018-03-31T14:49:59.585Z,3.10
2018-03-31T14:52:26.549Z,4.37
2018-03-31T14:54:53.510Z,2.40
2018-03-31T14:57:20.466Z,4.60
2018-03-31T14:59:47.417Z,2.60
2018-03-31T15:02:14.371Z,2.37
2018-03-31T15:04:41.322Z,2.30
2018-03-31T15:07:08.275Z,2.80
2018-03-31T15:09:35.494Z,2.30
2018-03-31T15:12:02.440Z,2.80
2018-03-31T15:14:29.394Z,2.67
2018-03-31T15:16:56.349Z,2.30
2018-03-31T15:19:24.839Z,2.30
2018-03-31T15:21:51.879Z,5.43
2018-03-31T15:24:18.840Z,2.47
2018-03-31T15:26:45.971Z,2.67
2018-03-31T15:29:12.939Z,2.60
2018-03-31T15:31:39.984Z,2.40
2018-03-31T15:34:06.937Z,2.67
2018-03-31T15:36:33.885Z,2.60
2018-03-31T15:39:00.830Z,2.30
2018-03-31T15:41:27.864Z,2.60
2018-03-31T15:43:54.822Z,2.70
2018-03-31T15:46:21.962Z,2.40
2018-03-31T15:48:48.892Z,2.70
2018-03-31T15:51:15.858Z,2.30
2018-03-31T15:53:42.809Z,2.30
2018-03-31T15:56:10.585Z,2.80
2018-03-31T15:58:37.539Z,2.30
2018-03-31T16:01:04.504Z,3.03
2018-03-31T16:03:31.760Z,2.70
2018-03-31T16:05:58.710Z,2.93
2018-03-31T16:08:25.667Z,5.13
2018-03-31T16:10:52.777Z,2.23
2018-03-31T16:13:19.715Z,2.40
2018-03-31T16:15:46.671Z,2.40
2018-03-31T16:18:13.625Z,4.80
2018-03-31T16:20:40.598Z,3.07
2018-03-31T16:23:07.544Z,2.47
2018-03-31T16:25:34.498Z,4.13
2018-03-31T16:28:01.456Z,2.50
2018-03-31T16:30:28.419Z,2.67
2018-03-31T16:32:55.372Z,2.40
2018-03-31T16:35:22.310Z,2.30
2018-03-31T16:37:49.281Z,3.20
2018-03-31T16:40:16.243Z,2.30
2018-03-31T16:42:43.185Z,2.57
2018-03-31T16:45:10.149Z,6.93
2018-03-31T16:47:37.866Z,2.60
2018-03-31T16:50:04.813Z,3.33
2018-03-31T16:52:31.764Z,2.43
2018-03-31T16:54:59.485Z,2.60
2018-03-31T16:57:26.429Z,2.40
2018-03-31T16:59:53.374Z,2.40
2018-03-31T17:02:20.353Z,2.20
2018-03-31T17:04:47.298Z,2.30
2018-03-31T17:07:14.257Z,3.03
2018-03-31T17:09:41.210Z,2.27
2018-03-31T17:12:08.153Z,3.27
2018-03-31T17:14:35.109Z,2.40
2018-03-31T17:17:02.075Z,2.40
2018-03-31T17:19:29.214Z,2.90
2018-03-31T17:21:56.155Z,2.50
2018-03-31T17:24:23.112Z,2.43
2018-03-31T17:26:50.061Z,2.77
2018-03-31T17:29:17.305Z,2.93
2018-03-31T17:31:44.279Z,2.60
2018-03-31T17:34:11.234Z,2.70
2018-03-31T17:36:38.225Z,11.53
2018-03-31T17:39:05.165Z,4.00
2018-03-31T17:41:32.126Z,2.97
2018-03-31T17:43:59.849Z,2.70
2018-03-31T17:46:26.788Z,2.60
2018-03-31T17:48:53.746Z,2.90
2018-03-31T17:51:20.731Z,6.33
2018-03-31T17:53:47.685Z,3.20
2018-03-31T17:56:14.645Z,8.87
2018-03-31T17:58:42.370Z,4.50
2018-03-31T18:01:09.331Z,4.93
2018-03-31T18:03:36.290Z,3.80
2018-03-31T18:06:03.228Z,3.53
2018-03-31T18:08:30.188Z,3.80
2018-03-31T18:10:57.144Z,6.43
2018-03-31T18:13:24.854Z,4.60
2018-03-31T18:15:51.808Z,4.40
2018-03-31T18:18:18.769Z,7.00
2018-03-31T18:20:45.722Z,4.50
2018-03-31T18:23:15.110Z,3.50
2018-03-31T18:25:42.046Z,7.03
2018-03-31T18:28:09.012Z,4.50
2018-03-31T18:30:35.954Z,4.43
2018-03-31T18:33:05.586Z,5.43
2018-03-31T18:35:32.629Z,5.57
2018-03-31T18:37:59.586Z,9.00
2018-03-31T18:40:26.559Z,3.10
2018-03-31T18:42:53.494Z,5.43
2018-03-31T18:45:20.451Z,8.53
2018-03-31T18:47:47.401Z,4.40
2018-03-31T18:50:14.358Z,4.40
2018-03-31T18:52:41.334Z,4.53
2018-03-31T18:55:08.283Z,4.47
2018-03-31T18:57:35.252Z,10.97
2018-03-31T19:00:02.190Z,4.43
2018-03-31T19:02:29.159Z,6.67
2018-03-31T19:04:56.113Z,7.60
2018-03-31T19:07:23.057Z,4.47
2018-03-31T19:09:50.044Z,4.87
2018-03-31T19:12:16.986Z,4.23
2018-03-31T19:14:44.239Z,5.93
2018-03-31T19:17:14.109Z,5.93
2018-03-31T19:19:41.050Z,6.83
2018-03-31T19:22:08.040Z,7.70
2018-03-31T19:24:40.729Z,5.93
2018-03-31T19:27:07.707Z,9.47
2018-03-31T19:29:36.175Z,8.20
2018-03-31T19:32:03.133Z,12.10
2018-03-31T19:34:30.170Z,8.17
2018-03-31T19:36:57.033Z,6.20
2018-03-31T19:39:29.499Z,7.13
2018-03-31T19:41:56.446Z,5.03
2018-03-31T19:44:23.394Z,4.17
2018-03-31T19:46:50.349Z,4.00
2018-03-31T19:49:17.313Z,5.80
2018-03-31T19:51:44.272Z,5.57
2018-03-31T19:54:11.233Z,6.50
2018-03-31T19:56:38.949Z,7.87
2018-03-31T19:59:05.914Z,4.00
2018-03-31T20:01:32.879Z,4.80
2018-03-31T20:04:00.802Z,4.33
2018-03-31T20:06:27.765Z,9.70
2018-03-31T20:08:54.726Z,14.83
2018-03-31T20:11:21.669Z,6.23
2018-03-31T20:13:48.725Z,7.00
2018-03-31T20:16:15.859Z,5.70
2018-03-31T20:18:42.832Z,5.60
2018-03-31T20:21:09.789Z,8.90
2018-03-31T20:23:36.738Z,4.10
2018-03-31T20:26:03.702Z,4.87
2018-03-31T20:28:30.650Z,4.00
2018-03-31T20:30:57.614Z,4.50
2018-03-31T20:33:24.577Z,5.57
2018-03-31T20:35:52.294Z,6.00
2018-03-31T20:38:19.254Z,5.20
2018-03-31T20:40:48.854Z,5.37
2018-03-31T20:43:15.809Z,4.90
2018-03-31T20:45:42.757Z,9.13
2018-03-31T20:48:10.982Z,7.03
2018-03-31T20:50:37.929Z,4.30
2018-03-31T20:53:04.873Z,4.83
2018-03-31T20:55:31.830Z,6.30
2018-03-31T20:57:58.798Z,5.90
2018-03-31T21:00:25.754Z,6.97
2018-03-31T21:02:52.721Z,6.77
2018-03-31T21:05:19.704Z,6.47
2018-03-31T21:07:46.666Z,4.97
2018-03-31T21:10:13.617Z,4.40
2018-03-31T21:12:41.337Z,4.50
2018-03-31T21:15:08.300Z,5.37
2018-03-31T21:17:35.249Z,4.70
2018-03-31T21:20:02.218Z,5.83
2018-03-31T21:22:29.191Z,6.30
2018-03-31T21:24:56.148Z,4.53
2018-03-31T21:27:23.110Z,4.60
2018-03-31T21:29:50.082Z,4.27
2018-03-31T21:32:17.034Z,4.07
2018-03-31T21:34:44.014Z,5.73
2018-03-31T21:37:12.461Z,4.03
2018-03-31T21:39:39.421Z,6.13
2018-03-31T21:42:06.382Z,6.10
2018-03-31T21:44:33.350Z,7.33
2018-03-31T21:47:00.301Z,8.07
2018-03-31T21:49:27.249Z,5.83
2018-03-31T21:51:54.999Z,7.33
2018-03-31T21:54:21.949Z,6.00
2018-03-31T21:56:48.910Z,6.10
2018-03-31T21:59:15.858Z,5.20
2018-03-31T22:01:42.821Z,4.27
2018-03-31T22:04:09.791Z,6.53
2018-03-31T22:06:36.744Z,6.10
2018-03-31T22:09:03.707Z,6.83
2018-03-31T22:11:30.677Z,5.87
2018-03-31T22:14:03.358Z,6.00
2018-03-31T22:16:30.309Z,5.30
2018-03-31T22:18:57.254Z,4.20
2018-03-31T22:21:24.222Z,4.83
2018-03-31T22:23:51.190Z,7.17
2018-03-31T22:26:18.175Z,4.90
2018-03-31T22:28:45.157Z,5.70
2018-03-31T22:31:12.124Z,3.57
2018-03-31T22:33:39.143Z,3.90
2018-03-31T22:36:06.066Z,5.00
2018-03-31T22:38:33.022Z,4.20
2018-03-31T22:40:59.976Z,6.30
2018-03-31T22:43:26.920Z,4.77
2018-03-31T22:45:54.405Z,4.87
2018-03-31T22:48:21.358Z,6.57
2018-03-31T22:50:48.321Z,5.33
2018-03-31T22:53:15.287Z,4.47
2018-03-31T22:55:43.020Z,5.87
2018-03-31T22:58:10.000Z,3.97
2018-03-31T23:00:36.962Z,3.60
2018-03-31T23:03:06.415Z,4.83
2018-03-31T23:05:33.373Z,3.70
2018-03-31T23:08:00.305Z,3.90
2018-03-31T23:10:27.278Z,4.23
2018-03-31T23:12:54.221Z,5.33
2018-03-31T23:15:21.177Z,4.70
2018-03-31T23:17:48.113Z,4.47
2018-03-31T23:20:15.061Z,4.77
2018-03-31T23:22:42.040Z,5.03
2018-03-31T23:25:08.990Z,4.17
2018-03-31T23:27:35.957Z,4.20
2018-03-31T23:30:02.907Z,6.53
2018-03-31T23:32:29.861Z,5.23
2018-03-31T23:34:58.328Z,4.53
2018-03-31T23:37:25.269Z,4.37
2018-03-31T23:39:52.240Z,4.80
2018-03-31T23:42:19.169Z,5.50
2018-03-31T23:44:46.126Z,5.63
2018-03-31T23:47:13.086Z,4.87
2018-03-31T23:49:40.049Z,5.00
2018-03-31T23:52:07.006Z,5.40
2018-03-31T23:54:34.714Z,4.57
2018-03-31T23:57:01.669Z,4.30
2018-03-31T23:59:28.616Z,4.20
